< < Back
Terminal Aerodrome Forecast


Current Version              Previous Versions:   1  2  3  4  5  6  7  8  9  

Terminal Aerodrome Forecast

391
FTUS42 KJAX 042326
TAFJAX
TAF
KJAX 042326Z 0500/0524 VRB06KT 6SM TSRA SCT045CB BKN250
      TEMPO 0500/0501 VRB10G22KT 2SM TSRA OVC030CB
     FM050200 00000KT P6SM FEW040 SCT250
     FM051300 06008KT P6SM VCSH SCT020 BKN040
     FM051700 06012KT P6SM VCTS BKN040CB BKN250=

Latest METAR

235
SAUS80 KWBC 050500
MTRJAX
METAR KJAX 050456Z 36006KT 7SM SCT048 BKN090 OVC250 23/23 A2998 RMK AO2
SLP153 T02330228 403390233


USA.gov is the U.S. government's official web portal to all federal, state and local government web resources and services.